Union Grove, Illinois
Current Conditions -  °F | °C
As of 1:55 PM on Saturday 25 Oct 2014 (Local Time) from KSQI Reporting Station
Clear Clear  
Wind Chill: 72°   Ceiling: Unl
Heat Index: 72°   Visibility: 10mi
Dew Point: 36°   Wind: 15mph
Humidity: 27%   Direction: 310°NW
Pressure: 29.99"   Gusts: 20mph
Location:  41.8285°N, 89.9656°W
Report Text: KSQI 251855Z AUTO 31013G17KT 10SM CLR 22/02 A2999 RMK AO1
Loading
Personal Weather Stations






























Interactive Weather Map
Tropical Storm Tracking
New forecast layout! Learn more

10-Day Weather Forecast

Advertisements
Track Severe Weather on mobile